Latest Weather Observations for Grafton Airport

IDN60801

Issued at 2:03 pm EST Wednesday 6 May 2015 (issued every 30 minutes, with the page automatically refreshed every 10 minutes)

About weather observations | Map of weather stations | Latest weather observations for NSW | Other Formats
Station Details ID: 058161 Name: GRAFTON AIRPORT AWS Lat: -29.76 Lon: 153.03 Height: 25.09 m
Data from the previous 72 hours. | See also: Recent months for locations in New South Wales
Date/Time
EST
Temp
°C
App
Temp
°C
Dew
Point
Rel
Hum
%
Delta-T
°C
Wind Press
QNH
hPa
Press
MSL
hPa
Rain
since 9 am
mm
Dir
 
Spd
km/h
Gust
km/h
Spd
kts
Gust
kts
06/02:00pm 28.1 26.9 10.3 33 10.0 WNW 7 11 4 6 1011.9 1011.8 0.2
06/01:30pm 28.0 26.5 9.3 31 10.4 NW 7 11 4 6 1012.0 1012.0 0.2
06/01:00pm 27.8 26.7 10.5 34 9.8 WNW 7 13 4 7 1012.2 1012.2 0.2
06/12:30pm 27.6 25.3 9.0 31 10.2 WNW 11 17 6 9 1012.4 1012.4 0.0
06/12:00pm 27.1 25.3 9.5 33 9.7 WNW 9 20 5 11 1012.8 1012.8 0.0
06/11:30am 26.4 25.5 11.3 39 8.6 NNW 7 13 4 7 1013.4 1013.4 0.0
06/11:00am 24.9 25.7 14.7 53 6.1 WNW 4 7 2 4 1013.8 1013.8 0.0
06/10:30am 23.8 25.2 15.3 59 5.1 WSW 2 7 1 4 1014.2 1014.2 0.0
06/10:00am 22.6 24.4 15.4 64 4.3 CALM 0 0 0 0 1014.4 1014.4 0.0
06/09:30am 20.5 21.9 15.3 72 3.1 NW 2 7 1 4 1014.3 1014.3 0.0
06/09:00am 19.3 21.0 16.2 82 1.9 SW 2 7 1 4 1014.4 1014.4 0.2
06/08:30am 17.2 18.0 14.8 86 1.4 SSW 4 7 2 4 1014.2 1014.2 0.2
06/08:00am 15.3 15.9 14.3 94 0.6 W 4 7 2 4 1014.1 1014.1 0.2
06/07:30am 14.1 15.3 13.9 99 0.1 CALM 0 0 0 0 1013.8 1013.8 0.2
06/07:00am 12.2 12.7 11.7 97 0.3 CALM 0 0 0 0 1013.6 1013.6 0.2
06/06:30am 12.9 12.4 12.7 99 0.1 SSW 7 9 4 5 1013.2 1013.2 0.2
06/06:15am 12.8 12.3 12.6 99 0.1 S 7 9 4 5 1012.9 1012.9 0.2
06/06:00am 12.1 12.7 11.8 98 0.2 CALM 0 0 0 0 1012.7 1012.7 0.2
06/05:46am 13.2 14.1 13.0 99 0.1 CALM 0 0 0 0 1012.4 1012.4 0.2
06/05:30am 12.5 13.2 12.3 99 0.1 CALM 0 0 0 0 1012.2 1012.2 0.2
06/05:03am 12.4 11.7 12.1 98 0.2 SSW 7 11 4 6 1012.0 1012.0 0.2
06/05:00am 13.5 12.8 13.3 99 0.1 SSW 9 11 5 6 1011.9 1011.8 0.2
06/04:30am 13.1 14.0 12.9 99 0.1 CALM 0 6 0 3 1011.5 1011.4 0.2
06/04:16am 13.2 14.1 13.0 99 0.1 CALM 0 0 0 0 1011.4 1011.3 0.2
06/04:00am 13.5 14.5 13.3 99 0.1 CALM 0 0 0 0 1011.3 1011.2 0.2
06/03:30am 14.0 13.9 13.8 99 0.1 S 7 9 4 5 1011.3 1011.2 0.2
06/03:00am 14.6 16.0 14.4 99 0.1 CALM 0 0 0 0 1011.4 1011.3 0.2
06/02:30am 14.1 15.2 13.6 97 0.3 CALM 0 0 0 0 1011.3 1011.2 0.2
06/02:12am 15.2 16.8 15.0 99 0.1 CALM 0 0 0 0 1011.3 1011.2 0.2
06/02:10am 15.6 17.4 15.4 99 0.1 CALM 0 0 0 0 1011.3 1011.2 0.2
06/02:00am 15.0 16.6 14.8 99 0.1 CALM 0 0 0 0 1011.4 1011.3 0.2
06/01:30am 15.3 15.8 15.1 99 0.1 SSW 6 7 3 4 1011.4 1011.3 0.2
06/01:29am 15.3 15.8 15.1 99 0.1 SSW 6 7 3 4 1011.4 1011.3 0.2
06/01:00am 15.5 16.8 15.2 98 0.2 S 2 7 1 4 1011.4 1011.3 0.0
06/12:50am 15.6 17.3 15.3 98 0.2 CALM 0 0 0 0 1011.5 1011.4 0.0
06/12:45am 15.6 17.3 15.3 98 0.2 CALM 0 0 0 0 1011.4 1011.3 0.0
06/12:30am 15.8 17.6 15.5 98 0.2 CALM 0 0 0 0 1011.4 1011.3 0.0
06/12:00am 16.4 18.4 15.9 97 0.3 CALM 0 0 0 0 1011.5 1011.4 0.0
 
Date/Time
EST
Temp
°C
App
Temp
°C
Dew
Point
Rel
Hum
%
Delta-T
°C
Wind Press
QNH
hPa
Press
MSL
hPa
Rain
since 9 am
mm
Dir
 
Spd
km/h
Gust
km/h
Spd
kts
Gust
kts
05/11:30pm 17.6 20.2 17.4 99 0.1 CALM 0 0 0 0 1011.7 1011.6 0.0
05/11:16pm 17.4 19.9 17.2 99 0.1 CALM 0 0 0 0 1011.7 1011.6 0.0
05/11:00pm 17.7 20.3 17.5 99 0.1 CALM 0 0 0 0 1011.6 1011.5 0.0
05/10:36pm 18.1 20.8 17.8 98 0.2 CALM 0 6 0 3 1011.6 1011.5 0.0
05/10:30pm 17.9 19.8 17.6 98 0.2 NNE 4 6 2 3 1011.5 1011.4 0.0
05/10:00pm 18.2 19.7 17.7 97 0.3 NNE 6 9 3 5 1011.4 1011.3 0.0
05/09:38pm 18.9 20.8 18.6 98 0.2 NE 6 7 3 4 1011.3 1011.2 0.0
05/09:30pm 18.6 20.1 18.1 97 0.3 NNE 7 11 4 6 1011.4 1011.3 0.0
05/09:00pm 19.2 21.1 18.5 96 0.4 NNE 6 9 3 5 1011.2 1011.1 0.0
05/08:30pm 19.1 21.3 18.3 95 0.5 N 4 7 2 4 1011.0 1010.9 0.0
05/08:00pm 19.1 21.1 17.8 92 0.8 NNE 4 6 2 3 1010.7 1010.6 0.0
05/07:30pm 19.8 22.7 18.3 91 0.9 CALM 0 0 0 0 1010.5 1010.4 0.0
05/07:00pm 20.1 22.7 18.4 90 1.1 NNE 2 7 1 4 1010.2 1010.1 0.0
05/06:30pm 20.8 22.5 18.6 87 1.4 NE 7 9 4 5 1009.8 1009.7 0.0
05/06:00pm 21.4 22.9 18.8 85 1.6 NE 9 13 5 7 1009.6 1009.5 0.0
05/05:30pm 22.2 23.4 19.0 82 2.0 NE 11 15 6 8 1009.1 1009.0 0.0
05/05:00pm 23.2 24.3 18.9 77 2.7 NE 11 15 6 8 1008.8 1008.7 0.0
05/04:30pm 24.8 25.1 18.7 69 3.9 N 15 19 8 10 1008.5 1008.4 0.0
05/04:00pm 25.7 25.3 18.1 63 4.8 N 17 22 9 12 1008.3 1008.2 0.0
05/03:30pm 26.0 25.1 18.2 62 4.9 NNE 20 26 11 14 1008.3 1008.2 0.0
05/03:00pm 26.1 25.4 18.2 61 5.0 NNE 19 22 10 12 1008.5 1008.4 0.0
05/02:30pm 25.9 25.0 17.8 61 5.1 NNE 19 24 10 13 1008.7 1008.6 0.0
05/02:00pm 25.8 24.9 17.7 61 5.1 N 19 24 10 13 1008.9 1008.8 0.0
05/01:30pm 26.0 25.4 18.4 63 4.8 NNE 19 24 10 13 1009.4 1009.3 0.0
05/01:00pm 25.3 25.0 18.2 64 4.5 NNE 17 20 9 11 1009.8 1009.7 0.0
05/12:30pm 24.6 24.6 19.0 71 3.6 NNE 17 20 9 11 1010.3 1010.2 0.0
05/12:00pm 23.9 23.4 17.9 69 3.8 NNE 17 24 9 13 1011.1 1011.0 0.0
05/11:30am 23.5 23.5 18.2 72 3.3 NNE 15 19 8 10 1011.8 1011.7 0.0
05/11:00am 23.0 24.1 17.9 73 3.2 N 9 17 5 9 1012.3 1012.3 0.0
05/10:30am 22.4 23.6 18.2 77 2.6 NNE 9 13 5 7 1012.8 1012.8 0.0
05/10:00am 21.1 22.0 17.5 80 2.2 NNE 9 15 5 8 1013.0 1013.0 0.0
05/09:50am 21.1 22.7 18.3 84 1.7 NNE 7 11 4 6 1013.0 1013.0 0.0
05/09:30am 18.9 21.2 17.7 93 0.7 SE 2 7 1 4 1013.3 1013.3 0.0
05/09:16am 18.1 20.4 17.6 97 0.3 SSW 2 7 1 4 1013.3 1013.3 0.0
05/09:00am 17.4 19.1 17.2 99 0.1 NW 4 7 2 4 1013.6 1013.6 0.0
05/08:30am 16.8 19.0 16.6 99 0.1 CALM 0 0 0 0 1013.9 1013.9 0.0
05/08:00am 16.2 18.2 16.0 99 0.1 CALM 0 0 0 0 1013.7 1013.7 0.0
05/07:30am 15.8 17.6 15.6 99 0.1 CALM 0 0 0 0 1013.5 1013.5 0.0
05/07:00am 15.4 17.1 15.2 99 0.1 CALM 0 0 0 0 1013.4 1013.4 0.0
05/06:30am 15.3 17.0 15.1 99 0.1 CALM 0 0 0 0 1013.3 1013.3 0.0
05/06:00am 15.0 16.6 14.8 99 0.1 CALM 0 0 0 0 1013.2 1013.2 0.0
05/05:48am 15.0 16.6 14.8 99 0.1 CALM 0 0 0 0 1013.2 1013.2 0.0
05/05:37am 15.1 16.7 14.9 99 0.1 CALM 0 0 0 0 1013.2 1013.2 0.0
05/05:30am 15.0 16.6 14.8 99 0.1 CALM 0 0 0 0 1013.1 1013.1 0.0
05/05:00am 15.1 16.7 14.9 99 0.1 CALM 0 0 0 0 1012.8 1012.8 0.0
05/04:30am 15.0 16.6 14.8 99 0.1 CALM 0 0 0 0 1012.8 1012.8 0.0
05/04:00am 15.2 16.8 15.0 99 0.1 CALM 0 0 0 0 1012.7 1012.7 0.0
05/03:30am 15.5 17.2 15.3 99 0.1 CALM 0 0 0 0 1012.8 1012.8 0.0
05/03:00am 15.6 17.4 15.4 99 0.1 CALM 0 0 0 0 1013.1 1013.1 0.0
05/02:30am 15.7 17.5 15.5 99 0.1 CALM 0 0 0 0 1013.2 1013.2 0.0
05/02:00am 16.1 18.1 15.9 99 0.1 CALM 0 0 0 0 1013.4 1013.4 0.0
05/01:42am 16.0 17.9 15.7 98 0.2 CALM 0 0 0 0 1013.6 1013.6 0.0
05/01:30am 16.0 17.9 15.7 98 0.2 CALM 0 0 0 0 1013.7 1013.7 0.0
05/01:00am 16.4 18.4 16.1 98 0.2 CALM 0 0 0 0 1014.0 1014.0 0.0
05/12:30am 17.1 19.4 16.8 98 0.2 CALM 0 0 0 0 1014.1 1014.1 0.0
05/12:16am 16.9 19.1 16.4 97 0.3 CALM 0 0 0 0 1014.3 1014.3 0.0
05/12:00am 17.5 20.0 17.2 98 0.2 CALM 0 0 0 0 1014.3 1014.3 0.0
 
Date/Time
EST
Temp
°C
App
Temp
°C
Dew
Point
Rel
Hum
%
Delta-T
°C
Wind Press
QNH
hPa
Press
MSL
hPa
Rain
since 9 am
mm
Dir
 
Spd
km/h
Gust
km/h
Spd
kts
Gust
kts
04/11:45pm 17.3 19.7 17.0 98 0.2 CALM 0 0 0 0 1014.3 1014.3 0.0
04/11:30pm 17.4 19.8 17.1 98 0.2 CALM 0 0 0 0 1014.4 1014.4 0.0
04/11:22pm 17.4 19.8 16.9 97 0.3 CALM 0 4 0 2 1014.4 1014.4 0.0
04/11:00pm 17.7 18.5 17.4 98 0.2 S 9 9 5 5 1014.5 1014.5 0.0
04/10:30pm 17.8 20.3 17.3 97 0.3 CALM 0 0 0 0 1014.7 1014.7 0.0
04/10:00pm 17.9 19.4 17.6 98 0.2 W 6 6 3 3 1014.8 1014.8 0.0
04/09:36pm 17.8 20.4 17.5 98 0.2 CALM 0 0 0 0 1014.8 1014.8 0.0
04/09:30pm 17.5 19.9 17.0 97 0.3 CALM 0 0 0 0 1014.8 1014.8 0.0
04/09:18pm 17.1 19.2 16.3 95 0.5 CALM 0 0 0 0 1014.7 1014.7 0.0
04/09:00pm 17.7 20.2 17.2 97 0.3 CALM 0 0 0 0 1014.6 1014.6 0.0
04/08:30pm 17.7 20.1 16.9 95 0.5 CALM 0 0 0 0 1014.3 1014.3 0.0
04/08:00pm 18.2 19.8 17.0 93 0.7 WSW 4 7 2 4 1014.1 1014.1 0.0
04/07:30pm 18.6 21.0 16.9 90 1.0 CALM 0 0 0 0 1014.0 1014.0 0.0
04/07:00pm 19.2 20.6 17.3 89 1.2 S 6 7 3 4 1013.9 1013.9 0.0
04/06:30pm 19.9 22.3 17.1 84 1.7 CALM 0 0 0 0 1013.7 1013.7 0.0
04/06:00pm 20.7 22.0 17.5 82 2.0 SSE 7 9 4 5 1013.4 1013.4 0.0
04/05:30pm 20.9 22.2 17.1 79 2.3 SE 6 9 3 5 1013.0 1013.0 0.0
04/05:00pm 21.5 22.1 16.7 74 2.9 ESE 9 13 5 7 1012.8 1012.8 0.0
04/04:30pm 22.7 22.8 16.5 68 3.8 SE 11 17 6 9 1012.5 1012.5 0.0
04/04:00pm 23.2 24.6 17.4 70 3.6 ESE 6 9 3 5 1012.2 1012.2 0.0
04/03:30pm 22.8 23.8 16.8 69 3.7 SE 7 9 4 5 1012.2 1012.2 0.0
04/03:00pm 23.7 23.8 16.5 64 4.4 ESE 11 17 6 9 1012.1 1012.1 0.0
04/02:30pm 23.0 24.6 17.0 69 3.7 SE 4 9 2 5 1012.0 1012.0 0.0
04/02:00pm 23.7 24.0 17.0 66 4.1 ESE 11 15 6 8 1012.1 1012.1 0.0
04/01:30pm 23.5 23.4 17.0 67 4.0 SSE 13 19 7 10 1012.3 1012.3 0.0
04/01:00pm 23.8 24.6 17.3 67 4.0 S 9 13 5 7 1012.7 1012.7 0.0
04/12:30pm 23.7 24.4 17.0 66 4.1 S 9 15 5 8 1012.9 1012.9 0.0
04/12:00pm 23.0 24.1 16.5 67 4.0 SSW 6 9 3 5 1013.5 1013.5 0.0
04/11:30am 23.3 23.9 15.9 63 4.5 S 7 13 4 7 1014.0 1014.0 0.0
04/11:00am 22.6 24.2 15.9 66 4.0 WSW 2 7 1 4 1014.2 1014.2 0.0
04/10:30am 21.7 23.3 16.9 74 2.9 NE 4 7 2 4 1014.5 1014.5 0.0
04/10:00am 20.9 22.9 16.1 74 2.9 CALM 0 6 0 3 1014.5 1014.5 0.0
04/09:30am 20.1 22.1 15.9 77 2.5 CALM 0 6 0 3 1014.6 1014.6 0.0
04/09:00am 19.0 20.1 15.5 80 2.1 SW 4 9 2 5 1014.7 1014.7 0.0
04/08:30am 17.3 18.6 15.1 87 1.3 SSW 2 7 1 4 1014.5 1014.5 0.0
04/08:00am 16.2 17.7 14.7 91 0.9 CALM 0 0 0 0 1014.5 1014.5 0.0
04/07:30am 15.1 16.7 14.9 99 0.1 CALM 0 0 0 0 1014.1 1014.1 0.0
04/07:00am 14.4 15.7 14.2 99 0.1 CALM 0 0 0 0 1013.8 1013.8 0.0
04/06:30am 13.9 15.1 13.7 99 0.1 CALM 0 0 0 0 1013.9 1013.9 0.0
04/06:00am 13.8 13.8 13.6 99 0.1 ESE 6 7 3 4 1013.6 1013.6 0.0
04/05:30am 13.4 14.4 13.1 98 0.2 CALM 0 0 0 0 1013.2 1013.2 0.0
04/05:00am 14.0 15.2 13.8 99 0.1 CALM 0 0 0 0 1013.0 1013.0 0.0
04/04:30am 13.8 14.1 13.5 98 0.2 SSW 4 7 2 4 1012.7 1012.7 0.0
04/04:00am 14.4 15.4 14.2 99 0.1 S 2 6 1 3 1012.4 1012.4 0.0
04/03:35am 14.6 15.6 14.4 99 0.1 SSE 2 7 1 4 1012.4 1012.4 0.0
04/03:30am 14.8 16.3 14.6 99 0.1 CALM 0 0 0 0 1012.4 1012.4 0.0
04/03:00am 14.2 15.4 13.9 98 0.2 CALM 0 0 0 0 1012.5 1012.5 0.0
04/02:41am 14.4 15.6 13.9 97 0.3 CALM 0 0 0 0 1012.4 1012.4 0.0
04/02:40am 14.4 15.6 13.9 97 0.3 CALM 0 0 0 0 1012.5 1012.5 0.0
04/02:30am 14.5 15.8 14.2 98 0.2 CALM 0 0 0 0 1012.5 1012.5 0.0
04/02:03am 14.7 16.0 14.2 97 0.3 CALM 0 0 0 0 1012.6 1012.6 0.0
04/02:00am 14.7 16.0 14.2 97 0.3 CALM 0 0 0 0 1012.6 1012.6 0.0
04/01:30am 15.0 15.7 14.5 97 0.3 S 4 7 2 4 1012.9 1012.9 0.0
04/01:00am 15.2 16.0 14.7 97 0.3 SE 4 7 2 4 1012.8 1012.8 0.0
04/12:30am 15.7 16.3 15.4 98 0.2 SW 6 6 3 3 1012.8 1012.8 0.0
04/12:00am 15.8 16.4 15.2 96 0.3 SW 6 7 3 4 1012.9 1012.9 0.0
 
Date/Time
EST
Temp
°C
App
Temp
°C
Dew
Point
Rel
Hum
%
Delta-T
°C
Wind Press
QNH
hPa
Press
MSL
hPa
Rain
since 9 am
mm
Dir
 
Spd
km/h
Gust
km/h
Spd
kts
Gust
kts
03/11:30pm 16.4 18.2 15.4 94 0.6 CALM 0 0 0 0 1013.1 1013.1 0.0
03/11:00pm 16.6 18.3 15.3 92 0.8 CALM 0 0 0 0 1013.3 1013.3 0.0
03/10:30pm 16.9 18.7 15.4 91 0.9 CALM 0 6 0 3 1013.3 1013.3 0.0
03/10:00pm 17.3 18.2 16.0 92 0.8 SSW 6 7 3 4 1013.4 1013.4 0.0
03/09:30pm 17.3 18.3 16.3 94 0.6 SSW 6 7 3 4 1013.5 1013.5 0.0
03/09:00pm 17.2 18.1 16.1 93 0.7 SSW 6 7 3 4 1013.5 1013.5 0.0
03/08:30pm 17.5 18.4 16.0 91 0.9 SSW 6 7 3 4 1013.3 1013.3 0.0
03/08:00pm 17.9 18.8 16.6 92 0.8 SSW 7 9 4 5 1013.1 1013.1 0.0
03/07:30pm 17.8 18.9 16.7 93 0.7 WSW 6 7 3 4 1013.0 1013.0 0.0
03/07:00pm 18.1 19.2 16.6 91 0.9 S 6 7 3 4 1012.7 1012.7 0.0
03/06:30pm 17.9 18.8 16.6 92 0.8 S 7 9 4 5 1012.4 1012.4 0.0
03/06:00pm 18.3 19.1 16.3 88 1.2 S 7 7 4 4 1011.8 1011.7 0.0
03/05:30pm 18.9 19.6 15.6 81 1.9 S 6 7 3 4 1011.4 1011.3 0.0
03/05:00pm 20.5 21.0 15.1 71 3.2 ESE 6 7 3 4 1010.9 1010.8 0.0
03/04:30pm 22.5 23.0 14.9 62 4.5 SE 6 9 3 5 1011.0 1010.9 0.0
03/04:00pm 23.5 23.2 14.5 57 5.3 SE 9 13 5 7 1011.0 1010.9 0.0
03/03:30pm 23.9 23.5 14.0 54 5.8 SSE 9 15 5 8 1010.8 1010.7 0.0
03/03:00pm 24.1 22.6 13.0 50 6.4 S 13 19 7 10 1010.5 1010.4 0.0
03/02:30pm 24.3 22.8 13.2 50 6.4 SSE 13 19 7 10 1010.2 1010.1 0.0

Other Formats:

Comma delimited format used in spreadsheet applications
http://www.bom.gov.au/fwo/IDN60801/IDN60801.95570.axf

JavaScript Object Notation format (JSON) in row-major order
http://www.bom.gov.au/fwo/IDN60801/IDN60801.95570.json